createdAt,value
2023-01-05T00:01:18.063Z,7.62
2023-01-05T00:04:05.701Z,7.63
2023-01-05T00:06:52.427Z,7.63
2023-01-05T00:09:38.966Z,7.65
2023-01-05T00:12:42.699Z,7.73
2023-01-05T00:15:46.932Z,7.83
2023-01-05T00:18:51.076Z,7.90
2023-01-05T00:21:55.219Z,7.96
2023-01-05T00:24:40.801Z,8.01
2023-01-05T00:27:27.208Z,8.09
2023-01-05T00:30:15.560Z,8.10
2023-01-05T00:33:00.869Z,8.09
2023-01-05T00:35:46.228Z,8.01
2023-01-05T00:38:31.516Z,7.92
2023-01-05T00:41:17.833Z,7.88
2023-01-05T00:44:03.304Z,7.90
2023-01-05T00:46:48.639Z,7.88
2023-01-05T00:49:33.819Z,7.87
2023-01-05T00:52:19.223Z,7.93
2023-01-05T00:55:04.924Z,7.95
2023-01-05T00:57:50.545Z,7.95
2023-01-05T01:00:36.478Z,7.95
2023-01-05T01:03:22.544Z,7.93
2023-01-05T01:06:08.339Z,7.90
2023-01-05T01:08:53.697Z,7.86
2023-01-05T01:11:39.485Z,7.81
2023-01-05T01:14:24.896Z,7.76
2023-01-05T01:17:10.403Z,7.77
2023-01-05T01:19:55.691Z,7.82
2023-01-05T01:22:41.045Z,7.83
2023-01-05T01:25:27.246Z,7.87
2023-01-05T01:28:12.935Z,7.87
2023-01-05T01:30:58.339Z,7.90
2023-01-05T01:33:44.430Z,7.82
2023-01-05T01:36:29.679Z,7.79
2023-01-05T01:39:15.826Z,7.72
2023-01-05T01:42:05.263Z,7.67
2023-01-05T01:44:56.097Z,7.58
2023-01-05T01:48:01.534Z,7.54
2023-01-05T01:50:52.810Z,7.47
2023-01-05T01:53:42.433Z,7.44
2023-01-05T01:56:35.620Z,7.39
2023-01-05T01:59:21.692Z,7.35
2023-01-05T02:02:09.106Z,7.43
2023-01-05T02:04:57.652Z,7.45
2023-01-05T02:07:46.884Z,7.52
2023-01-05T02:11:00.031Z,7.57
2023-01-05T02:14:21.461Z,7.59
2023-01-05T02:17:23.741Z,7.58
2023-01-05T02:20:25.708Z,7.57
2023-01-05T02:23:37.245Z,7.62
2023-01-05T02:26:46.965Z,7.70
2023-01-05T02:29:51.223Z,7.75
2023-01-05T02:33:12.471Z,7.76
2023-01-05T02:36:06.175Z,7.77
2023-01-05T02:39:15.047Z,7.78
2023-01-05T02:42:08.867Z,7.81
2023-01-05T02:44:54.741Z,7.81
2023-01-05T02:47:44.985Z,7.79
2023-01-05T02:50:48.948Z,7.76
2023-01-05T02:53:40.387Z,7.74
2023-01-05T02:56:42.162Z,7.77
2023-01-05T02:59:35.273Z,7.82
2023-01-05T03:02:31.164Z,7.90
2023-01-05T03:05:23.274Z,7.97
2023-01-05T03:08:25.248Z,8.00
2023-01-05T03:11:37.111Z,8.04
2023-01-05T03:14:35.189Z,8.06
2023-01-05T03:17:29.436Z,8.08
2023-01-05T03:20:18.518Z,8.09
2023-01-05T03:23:26.647Z,8.07
2023-01-05T03:26:32.014Z,8.08
2023-01-05T03:29:37.604Z,8.06
2023-01-05T03:32:44.453Z,7.95
2023-01-05T03:35:34.062Z,7.82
2023-01-05T03:38:40.446Z,7.71
2023-01-05T03:41:28.010Z,7.65
2023-01-05T03:44:16.059Z,7.61
2023-01-05T03:47:02.287Z,7.61
2023-01-05T03:49:47.646Z,7.64
2023-01-05T03:52:34.087Z,7.67
2023-01-05T03:55:19.939Z,7.71
2023-01-05T03:58:10.415Z,7.75
2023-01-05T04:00:59.956Z,7.78
2023-01-05T04:03:46.516Z,7.81
2023-01-05T04:06:32.512Z,7.83
2023-01-05T04:09:18.113Z,7.86
2023-01-05T04:12:04.877Z,7.89
2023-01-05T04:14:54.531Z,7.95
2023-01-05T04:17:39.785Z,7.98
2023-01-05T04:20:28.131Z,7.99
2023-01-05T04:23:13.468Z,8.03
2023-01-05T04:25:59.041Z,8.08
2023-01-05T04:28:45.454Z,8.14
2023-01-05T04:31:31.624Z,8.20
2023-01-05T04:34:17.105Z,8.24
2023-01-05T04:37:03.440Z,8.28
2023-01-05T04:39:50.534Z,8.31
2023-01-05T04:42:36.244Z,8.33
2023-01-05T04:45:21.549Z,8.33
2023-01-05T04:48:07.432Z,8.34
2023-01-05T04:50:54.682Z,8.37
2023-01-05T04:53:46.250Z,8.38
2023-01-05T04:56:35.118Z,8.43
2023-01-05T04:59:22.952Z,8.44
2023-01-05T05:02:12.620Z,8.45
2023-01-05T05:05:00.209Z,8.45
2023-01-05T05:07:46.182Z,8.47
2023-01-05T05:10:33.566Z,8.47
2023-01-05T05:13:19.113Z,8.49
2023-01-05T05:16:04.805Z,8.49
2023-01-05T05:18:52.408Z,8.51
2023-01-05T05:21:42.150Z,8.52
2023-01-05T05:24:28.442Z,8.54
2023-01-05T05:27:14.162Z,8.57
2023-01-05T05:29:59.636Z,8.59
2023-01-05T05:32:45.110Z,8.59
2023-01-05T05:35:30.286Z,8.58
2023-01-05T05:38:15.636Z,8.56
2023-01-05T05:41:00.895Z,8.54
2023-01-05T05:43:46.397Z,8.50
2023-01-05T05:46:32.072Z,8.46
2023-01-05T05:49:17.754Z,8.40
2023-01-05T05:52:03.443Z,8.34
2023-01-05T05:54:49.000Z,8.31
2023-01-05T05:57:34.359Z,8.26
2023-01-05T06:00:19.897Z,8.24
2023-01-05T06:03:05.766Z,8.20
2023-01-05T06:05:52.389Z,8.17
2023-01-05T06:08:38.051Z,8.16
2023-01-05T06:11:23.522Z,8.13
2023-01-05T06:14:09.409Z,8.12
2023-01-05T06:16:54.765Z,8.11
2023-01-05T06:19:40.192Z,8.11
2023-01-05T06:22:25.559Z,8.12
2023-01-05T06:25:11.608Z,8.12
2023-01-05T06:27:57.342Z,8.10
2023-01-05T06:30:42.694Z,8.07
2023-01-05T06:33:28.291Z,8.05
2023-01-05T06:36:13.983Z,8.03
2023-01-05T06:38:59.396Z,8.02
2023-01-05T06:41:44.854Z,8.00
2023-01-05T06:44:30.342Z,8.11
2023-01-05T06:47:15.775Z,8.25
2023-01-05T06:50:01.176Z,8.33
2023-01-05T06:52:46.457Z,8.44
2023-01-05T06:55:31.867Z,8.54
2023-01-05T06:58:17.280Z,8.65
2023-01-05T07:01:02.826Z,8.73
2023-01-05T07:03:48.465Z,8.78
2023-01-05T07:06:35.550Z,8.81
2023-01-05T07:09:21.145Z,8.86
2023-01-05T07:12:07.109Z,8.89
2023-01-05T07:14:57.251Z,8.93
2023-01-05T07:17:43.586Z,9.00
2023-01-05T07:20:28.934Z,9.03
2023-01-05T07:23:14.437Z,9.03
2023-01-05T07:26:02.937Z,9.03
2023-01-05T07:28:48.223Z,9.05
2023-01-05T07:31:33.648Z,9.08
2023-01-05T07:34:19.731Z,9.11
2023-01-05T07:37:04.955Z,9.09
2023-01-05T07:39:50.535Z,9.08
2023-01-05T07:42:36.139Z,9.11
2023-01-05T07:45:23.422Z,9.11
2023-01-05T07:48:08.971Z,9.12
2023-01-05T07:51:01.507Z,9.22
2023-01-05T07:53:46.681Z,9.26
2023-01-05T07:56:32.222Z,9.27
2023-01-05T07:59:17.704Z,9.29
2023-01-05T08:02:03.793Z,9.31
2023-01-05T08:04:49.647Z,9.34
2023-01-05T08:07:36.852Z,9.39
2023-01-05T08:10:31.181Z,9.42
2023-01-05T08:13:35.300Z,9.45
2023-01-05T08:16:21.516Z,9.51
2023-01-05T08:19:11.001Z,9.55
2023-01-05T08:21:57.279Z,9.57
2023-01-05T08:24:42.834Z,9.63
2023-01-05T08:27:28.341Z,9.70
2023-01-05T08:30:14.493Z,9.76
2023-01-05T08:33:00.150Z,9.88
2023-01-05T08:35:45.722Z,9.94
2023-01-05T08:38:31.314Z,9.97
2023-01-05T08:41:24.021Z,10.00
2023-01-05T08:44:14.643Z,10.04
2023-01-05T08:47:00.377Z,10.05
2023-01-05T08:49:45.594Z,10.06
2023-01-05T08:52:31.145Z,10.03
2023-01-05T08:55:16.475Z,10.03
2023-01-05T08:58:02.226Z,10.08
2023-01-05T09:00:47.854Z,10.15
2023-01-05T09:03:33.235Z,10.24
2023-01-05T09:06:19.212Z,10.28
2023-01-05T09:09:04.687Z,10.30
2023-01-05T09:11:50.972Z,10.35
2023-01-05T09:14:36.913Z,10.43
2023-01-05T09:17:22.445Z,10.50
2023-01-05T09:20:08.601Z,10.56
2023-01-05T09:22:54.192Z,10.57
2023-01-05T09:25:40.379Z,10.63
2023-01-05T09:28:25.949Z,10.64
2023-01-05T09:31:17.463Z,10.67
2023-01-05T09:34:02.679Z,10.69
2023-01-05T09:36:48.504Z,10.73
2023-01-05T09:39:33.846Z,10.72
2023-01-05T09:42:23.594Z,10.71
2023-01-05T09:45:13.728Z,10.72
2023-01-05T09:48:01.310Z,10.72
2023-01-05T09:50:49.563Z,10.73
2023-01-05T09:53:35.094Z,10.77
2023-01-05T09:59:42.808Z,10.83
2023-01-05T10:02:37.336Z,10.82
2023-01-05T10:05:25.527Z,10.82
2023-01-05T10:08:18.572Z,10.82
2023-01-05T10:11:49.576Z,10.80
2023-01-05T10:14:37.856Z,10.70
2023-01-05T10:17:40.948Z,10.70
2023-01-05T10:20:31.034Z,10.73
2023-01-05T10:23:34.908Z,10.76
2023-01-05T10:26:25.080Z,10.83
2023-01-05T10:29:18.787Z,10.86
2023-01-05T10:32:12.594Z,10.88
2023-01-05T10:35:07.051Z,10.92
2023-01-05T10:38:03.799Z,10.95
2023-01-05T10:41:01.460Z,10.97
2023-01-05T10:44:07.474Z,11.00
2023-01-05T10:46:53.253Z,11.00
2023-01-05T10:49:41.815Z,11.00
2023-01-05T10:52:27.008Z,11.02
2023-01-05T10:55:16.437Z,11.06
2023-01-05T10:58:01.769Z,11.08
2023-01-05T11:00:48.022Z,11.11
2023-01-05T11:06:49.388Z,11.19
2023-01-05T11:09:40.271Z,11.24
2023-01-05T11:12:26.297Z,11.33
2023-01-05T11:15:15.678Z,11.40
2023-01-05T11:18:02.538Z,11.42
2023-01-05T11:21:26.100Z,11.45
2023-01-05T11:24:23.687Z,11.47
2023-01-05T11:27:21.453Z,11.48
2023-01-05T11:30:16.008Z,11.52
2023-01-05T11:33:01.983Z,11.55
2023-01-05T11:35:47.577Z,11.57
2023-01-05T11:38:34.751Z,11.58
2023-01-05T11:41:23.412Z,11.59
2023-01-05T11:44:22.448Z,11.61
2023-01-05T11:47:09.296Z,11.62
2023-01-05T11:50:06.961Z,11.62
2023-01-05T11:52:56.445Z,11.65
2023-01-05T11:55:41.770Z,11.71
2023-01-05T11:58:51.697Z,11.72
2023-01-05T12:02:07.031Z,11.73
2023-01-05T12:05:13.838Z,11.75
2023-01-05T12:08:07.429Z,11.76
2023-01-05T12:10:52.680Z,11.76
2023-01-05T12:13:45.475Z,11.76
2023-01-05T12:16:45.716Z,11.76
2023-01-05T12:19:46.489Z,11.76
2023-01-05T12:23:06.101Z,11.74
2023-01-05T12:25:54.896Z,11.74
2023-01-05T12:29:49.839Z,11.74
2023-01-05T12:35:37.255Z,11.77
2023-01-05T12:38:38.269Z,11.81
2023-01-05T12:42:01.234Z,11.82
2023-01-05T12:45:16.572Z,11.89
2023-01-05T12:48:08.963Z,11.96
2023-01-05T12:50:57.332Z,12.07
2023-01-05T12:53:55.160Z,12.14
2023-01-05T12:57:05.454Z,12.19
2023-01-05T13:00:03.365Z,12.21
2023-01-05T13:02:55.734Z,12.23
2023-01-05T13:05:45.999Z,12.28
2023-01-05T13:08:53.402Z,12.27
2023-01-05T13:11:45.835Z,12.26
2023-01-05T13:14:36.246Z,12.25
2023-01-05T13:17:35.062Z,12.25
2023-01-05T13:20:46.471Z,12.24
2023-01-05T13:23:40.375Z,12.19
2023-01-05T13:26:26.025Z,12.12
2023-01-05T13:29:27.524Z,12.11
2023-01-05T13:35:50.932Z,12.11
2023-01-05T13:39:30.387Z,12.08
2023-01-05T13:42:40.495Z,12.09
2023-01-05T13:45:25.708Z,12.13
2023-01-05T13:48:34.028Z,12.15
2023-01-05T13:51:45.290Z,12.25
2023-01-05T13:54:49.547Z,12.30
2023-01-05T13:57:46.964Z,12.38
2023-01-05T14:00:41.891Z,12.43
2023-01-05T14:03:35.526Z,12.49
2023-01-05T14:06:25.636Z,12.54
2023-01-05T14:09:18.732Z,12.59
2023-01-05T14:12:16.258Z,12.61
2023-01-05T14:15:09.502Z,12.65
2023-01-05T14:17:58.059Z,12.64
2023-01-05T14:20:56.273Z,12.62
2023-01-05T14:23:42.872Z,12.59
2023-01-05T14:27:00.797Z,12.58
2023-01-05T14:29:46.164Z,12.53
2023-01-05T14:32:41.464Z,12.46
2023-01-05T14:35:37.192Z,12.37
2023-01-05T14:38:25.159Z,12.29
2023-01-05T14:41:26.678Z,12.25
2023-01-05T14:44:22.605Z,12.18
2023-01-05T14:47:09.834Z,12.13
2023-01-05T14:50:03.716Z,12.11
2023-01-05T14:52:56.432Z,12.10
2023-01-05T14:56:01.472Z,12.06
2023-01-05T14:58:54.588Z,12.03
2023-01-05T15:01:48.077Z,12.00
2023-01-05T15:04:37.464Z,11.98
2023-01-05T15:07:48.248Z,11.91
2023-01-05T15:11:02.834Z,11.80
2023-01-05T15:14:15.852Z,11.69
2023-01-05T15:17:17.025Z,11.55
2023-01-05T15:20:36.828Z,11.45
2023-01-05T15:24:05.200Z,11.33
2023-01-05T15:27:26.049Z,11.24
2023-01-05T15:30:11.557Z,11.20
2023-01-05T15:33:24.601Z,11.14
2023-01-05T15:36:22.029Z,11.10
2023-01-05T15:39:44.640Z,11.08
2023-01-05T15:42:39.406Z,11.02
2023-01-05T15:45:29.666Z,10.97
2023-01-05T15:48:21.685Z,10.89
2023-01-05T15:51:07.996Z,10.82
2023-01-05T15:54:01.665Z,10.77
2023-01-05T15:56:47.543Z,10.72
2023-01-05T15:59:38.983Z,10.67
2023-01-05T16:02:30.070Z,10.65
2023-01-05T16:05:19.222Z,10.63
2023-01-05T16:08:14.945Z,10.62
2023-01-05T16:11:06.016Z,10.56
2023-01-05T16:13:57.689Z,10.51
2023-01-05T16:16:54.841Z,10.36
2023-01-05T16:19:47.098Z,10.19
2023-01-05T16:22:46.856Z,10.00
2023-01-05T16:25:39.323Z,9.91
2023-01-05T16:28:25.361Z,9.88
2023-01-05T16:31:24.454Z,9.85
2023-01-05T16:34:16.854Z,9.83
2023-01-05T16:37:15.584Z,9.77
2023-01-05T16:40:02.117Z,9.64
2023-01-05T16:42:50.633Z,9.46
2023-01-05T16:45:36.276Z,9.36
2023-01-05T16:48:38.999Z,9.18
2023-01-05T16:51:31.921Z,9.08
2023-01-05T16:54:24.490Z,8.97
2023-01-05T16:57:34.822Z,8.89
2023-01-05T17:00:29.693Z,8.82
2023-01-05T17:03:30.368Z,8.74
2023-01-05T17:06:29.049Z,8.67
2023-01-05T17:09:24.912Z,8.63
2023-01-05T17:12:13.193Z,8.60
2023-01-05T17:15:02.137Z,8.57
2023-01-05T17:17:47.586Z,8.54
2023-01-05T17:23:32.593Z,8.45
2023-01-05T17:26:23.758Z,8.41
2023-01-05T17:29:20.271Z,8.37
2023-01-05T17:32:05.494Z,8.33
2023-01-05T17:34:50.777Z,8.30
2023-01-05T17:37:36.500Z,8.27
2023-01-05T17:40:22.611Z,8.24
2023-01-05T17:43:08.128Z,8.19
2023-01-05T17:45:53.845Z,8.16
2023-01-05T17:48:39.559Z,8.13
2023-01-05T17:51:24.784Z,8.13
2023-01-05T17:54:10.583Z,8.10
2023-01-05T17:56:56.057Z,8.08
2023-01-05T18:02:27.967Z,8.01
2023-01-05T18:05:13.597Z,7.98
2023-01-05T18:07:59.241Z,7.94
2023-01-05T18:10:46.670Z,7.96
2023-01-05T18:13:33.363Z,7.92
2023-01-05T18:16:19.148Z,7.89
2023-01-05T18:19:04.703Z,7.89
2023-01-05T18:21:50.079Z,7.89
2023-01-05T18:24:35.629Z,7.89
2023-01-05T18:27:21.395Z,7.87
2023-01-05T18:30:09.135Z,7.85
2023-01-05T18:32:54.775Z,7.81
2023-01-05T18:35:43.775Z,7.77
2023-01-05T18:38:29.489Z,7.74
2023-01-05T18:41:15.383Z,7.74
2023-01-05T18:44:00.699Z,7.75
2023-01-05T18:46:46.169Z,7.74
2023-01-05T18:49:32.207Z,7.72
2023-01-05T18:52:17.338Z,7.72
2023-01-05T18:55:03.822Z,7.70
2023-01-05T18:57:49.107Z,7.69
2023-01-05T19:00:34.685Z,7.65
2023-01-05T19:03:20.096Z,7.65
2023-01-05T19:06:14.951Z,7.61
2023-01-05T19:09:04.140Z,7.55
2023-01-05T19:11:49.955Z,7.54
2023-01-05T19:14:35.792Z,7.51
2023-01-05T19:17:21.102Z,7.49
2023-01-05T19:20:07.156Z,7.54
2023-01-05T19:22:52.487Z,7.56
2023-01-05T19:25:37.856Z,7.57
2023-01-05T19:28:23.377Z,7.52
2023-01-05T19:31:12.215Z,7.42
2023-01-05T19:33:59.239Z,7.32
2023-01-05T19:36:45.764Z,7.19
2023-01-05T19:39:31.354Z,7.09
2023-01-05T19:42:16.760Z,7.02
2023-01-05T19:45:03.731Z,6.98
2023-01-05T19:47:49.137Z,6.93
2023-01-05T19:50:34.845Z,6.94
2023-01-05T19:53:20.544Z,6.87
2023-01-05T19:56:08.998Z,6.87
2023-01-05T19:58:57.664Z,6.85
2023-01-05T20:01:43.835Z,6.85
2023-01-05T20:04:30.087Z,6.90
2023-01-05T20:07:15.494Z,6.93
2023-01-05T20:10:01.027Z,6.94
2023-01-05T20:12:46.263Z,6.97
2023-01-05T20:15:33.393Z,6.93
2023-01-05T20:18:18.791Z,6.92
2023-01-05T20:21:07.527Z,6.91
2023-01-05T20:23:53.277Z,6.94
2023-01-05T20:26:39.428Z,6.95
2023-01-05T20:29:26.046Z,6.91
2023-01-05T20:32:17.830Z,6.93
2023-01-05T20:35:03.956Z,6.89
2023-01-05T20:37:49.474Z,6.91
2023-01-05T20:40:34.967Z,6.91
2023-01-05T20:43:20.756Z,6.91
2023-01-05T20:46:06.249Z,6.87
2023-01-05T20:48:53.502Z,6.83
2023-01-05T20:51:39.457Z,6.77
2023-01-05T20:54:25.758Z,6.71
2023-01-05T20:57:11.695Z,6.72
2023-01-05T20:59:57.299Z,6.70
2023-01-05T21:02:42.926Z,6.70
2023-01-05T21:05:28.471Z,6.68
2023-01-05T21:08:14.033Z,6.68
2023-01-05T21:11:01.445Z,6.65
2023-01-05T21:13:49.623Z,6.63
2023-01-05T21:16:46.131Z,6.54
2023-01-05T21:19:31.609Z,6.48
2023-01-05T21:22:17.041Z,6.43
2023-01-05T21:25:02.488Z,6.42
2023-01-05T21:27:47.805Z,6.42
2023-01-05T21:30:33.300Z,6.37
2023-01-05T21:33:18.623Z,6.34
2023-01-05T21:36:08.403Z,6.30
2023-01-05T21:39:01.712Z,6.29
2023-01-05T21:42:08.851Z,6.24
2023-01-05T21:44:54.630Z,6.20
2023-01-05T21:47:40.078Z,6.17
2023-01-05T21:50:44.065Z,6.20
2023-01-05T21:53:48.126Z,6.19
2023-01-05T21:56:40.485Z,6.13
2023-01-05T21:59:26.171Z,6.14
2023-01-05T22:02:12.986Z,6.14
2023-01-05T22:04:58.299Z,6.11
2023-01-05T22:07:43.845Z,6.03
2023-01-05T22:10:29.168Z,6.03
2023-01-05T22:13:15.127Z,6.05
2023-01-05T22:16:00.667Z,6.09
2023-01-05T22:18:46.153Z,6.06
2023-01-05T22:21:31.638Z,6.06
2023-01-05T22:24:16.909Z,5.99
2023-01-05T22:27:02.300Z,6.07
2023-01-05T22:29:47.661Z,6.06
2023-01-05T22:32:34.349Z,5.96
2023-01-05T22:35:20.037Z,6.00
2023-01-05T22:38:05.287Z,6.01
2023-01-05T22:40:58.273Z,5.98
2023-01-05T22:43:43.980Z,5.99
2023-01-05T22:46:30.784Z,5.94
2023-01-05T22:49:16.688Z,5.95
2023-01-05T22:52:03.002Z,5.90
2023-01-05T22:54:48.529Z,5.87
2023-01-05T22:57:33.915Z,5.85
2023-01-05T23:00:19.310Z,5.90
2023-01-05T23:03:04.891Z,5.90
2023-01-05T23:05:50.192Z,5.90
2023-01-05T23:08:37.386Z,5.83
2023-01-05T23:11:32.023Z,5.82
2023-01-05T23:14:19.252Z,5.84
2023-01-05T23:17:04.895Z,5.89
2023-01-05T23:19:50.458Z,6.03
2023-01-05T23:22:35.837Z,6.00
2023-01-05T23:25:21.320Z,5.96
2023-01-05T23:28:06.574Z,5.86
2023-01-05T23:30:54.752Z,5.79
2023-01-05T23:33:41.139Z,5.75
2023-01-05T23:36:26.513Z,5.70
2023-01-05T23:39:12.212Z,5.72
2023-01-05T23:41:57.521Z,5.67
2023-01-05T23:44:42.748Z,5.65
2023-01-05T23:47:28.325Z,5.64
2023-01-05T23:50:13.686Z,5.63
2023-01-05T23:52:59.759Z,5.64
2023-01-05T23:55:45.162Z,5.59
2023-01-05T23:58:30.729Z,5.57
